createdAt,value
2018-06-16T00:00:03.026Z,99.90
2018-06-16T00:02:31.565Z,99.90
2018-06-16T00:05:00.339Z,99.90
2018-06-16T00:07:29.403Z,99.90
2018-06-16T00:09:57.933Z,99.90
2018-06-16T00:12:26.459Z,99.90
2018-06-16T00:14:55.384Z,99.90
2018-06-16T00:17:24.358Z,99.90
2018-06-16T00:19:52.866Z,99.90
2018-06-16T00:22:21.463Z,99.90
2018-06-16T00:24:50.160Z,99.90
2018-06-16T00:27:18.691Z,99.90
2018-06-16T00:29:47.199Z,99.90
2018-06-16T00:32:16.340Z,99.90
2018-06-16T00:34:44.855Z,99.90
2018-06-16T00:37:13.595Z,99.90
2018-06-16T00:39:42.410Z,99.90
2018-06-16T00:42:11.297Z,99.90
2018-06-16T00:44:40.050Z,99.90
2018-06-16T00:47:08.638Z,99.90
2018-06-16T00:49:37.327Z,99.90
2018-06-16T00:52:06.081Z,99.90
2018-06-16T00:54:34.706Z,99.90
2018-06-16T00:57:14.397Z,99.90
2018-06-16T00:59:43.019Z,99.90
2018-06-16T01:02:11.560Z,99.90
2018-06-16T01:04:40.131Z,99.90
2018-06-16T01:07:08.681Z,99.90
2018-06-16T01:09:37.379Z,99.90
2018-06-16T01:12:05.949Z,99.90
2018-06-16T01:14:34.470Z,99.90
2018-06-16T01:17:03.049Z,99.90
2018-06-16T01:19:31.551Z,99.90
2018-06-16T01:22:00.355Z,99.90
2018-06-16T01:24:28.910Z,99.90
2018-06-16T01:26:57.399Z,99.90
2018-06-16T01:29:26.009Z,99.90
2018-06-16T01:31:54.559Z,99.90
2018-06-16T01:34:23.279Z,99.90
2018-06-16T01:36:51.931Z,99.90
2018-06-16T01:39:20.611Z,99.90
2018-06-16T01:41:49.080Z,99.90
2018-06-16T01:44:17.540Z,99.90
2018-06-16T01:46:46.106Z,99.90
2018-06-16T01:49:14.679Z,99.90
2018-06-16T01:51:43.233Z,99.90
2018-06-16T01:54:12.100Z,99.90
2018-06-16T01:56:40.718Z,99.90
2018-06-16T01:59:09.353Z,99.90
2018-06-16T02:01:38.090Z,99.90
2018-06-16T02:04:06.579Z,99.90
2018-06-16T02:06:35.168Z,99.90
2018-06-16T02:09:05.498Z,99.90
2018-06-16T02:11:34.322Z,99.90
2018-06-16T02:14:02.841Z,99.90
2018-06-16T02:16:31.450Z,99.90
2018-06-16T02:19:00.214Z,99.90
2018-06-16T02:21:28.777Z,99.90
2018-06-16T02:23:57.490Z,99.90
2018-06-16T02:26:26.148Z,99.90
2018-06-16T02:28:54.756Z,99.90
2018-06-16T02:31:23.216Z,99.90
2018-06-16T02:33:52.191Z,99.90
2018-06-16T02:36:20.885Z,99.90
2018-06-16T02:41:17.944Z,99.90
2018-06-16T02:43:46.617Z,99.90
2018-06-16T02:46:15.534Z,99.90
2018-06-16T02:48:44.206Z,99.90
2018-06-16T02:51:12.663Z,99.90
2018-06-16T02:53:41.236Z,99.90
2018-06-16T02:56:09.862Z,99.90
2018-06-16T02:58:38.360Z,99.90
2018-06-16T03:01:07.061Z,99.90
2018-06-16T03:03:35.705Z,99.90
2018-06-16T03:06:04.240Z,99.90
2018-06-16T03:08:32.896Z,99.90
2018-06-16T03:11:01.451Z,99.90
2018-06-16T03:13:30.106Z,99.90
2018-06-16T03:15:58.771Z,99.90
2018-06-16T03:18:27.356Z,99.90
2018-06-16T03:20:55.857Z,99.90
2018-06-16T03:23:24.379Z,99.90
2018-06-16T03:25:53.050Z,99.90
2018-06-16T03:28:21.675Z,99.90
2018-06-16T03:30:50.344Z,99.90
2018-06-16T03:33:18.917Z,99.90
2018-06-16T03:35:47.550Z,99.90
2018-06-16T03:38:16.282Z,99.90
2018-06-16T03:40:45.272Z,99.90
2018-06-16T03:43:13.922Z,99.90
2018-06-16T03:45:42.388Z,99.90
2018-06-16T03:48:10.942Z,99.90
2018-06-16T03:50:39.515Z,99.90
2018-06-16T03:53:08.154Z,99.90
2018-06-16T03:55:36.888Z,99.90
2018-06-16T03:58:05.567Z,99.90
2018-06-16T04:00:34.227Z,99.90
2018-06-16T04:03:02.832Z,99.90
2018-06-16T04:05:31.481Z,99.90
2018-06-16T04:08:00.027Z,99.90
2018-06-16T04:10:28.603Z,99.90
2018-06-16T04:12:57.140Z,99.90
2018-06-16T04:17:53.874Z,99.90
2018-06-16T04:20:22.536Z,99.90
2018-06-16T04:22:51.128Z,99.90
2018-06-16T04:25:19.745Z,99.90
2018-06-16T04:27:48.406Z,99.90
2018-06-16T04:30:16.903Z,99.90
2018-06-16T04:32:45.495Z,99.90
2018-06-16T04:35:14.073Z,99.90
2018-06-16T04:37:42.689Z,99.90
2018-06-16T04:40:11.288Z,99.90
2018-06-16T04:42:39.918Z,99.90
2018-06-16T04:45:08.473Z,99.90
2018-06-16T04:47:37.362Z,99.90
2018-06-16T04:50:06.290Z,99.90
2018-06-16T04:52:34.848Z,99.90
2018-06-16T04:55:03.452Z,99.90
2018-06-16T04:57:32.062Z,99.90
2018-06-16T05:00:01.104Z,99.90
2018-06-16T05:02:29.765Z,99.90
2018-06-16T05:04:58.241Z,99.90
2018-06-16T05:09:55.409Z,99.90
2018-06-16T05:12:24.212Z,99.90
2018-06-16T05:14:52.912Z,99.90
2018-06-16T05:17:21.474Z,99.90
2018-06-16T05:19:50.060Z,99.90
2018-06-16T05:22:18.685Z,99.90
2018-06-16T05:24:47.186Z,99.90
2018-06-16T05:27:15.637Z,99.90
2018-06-16T05:29:44.224Z,99.90
2018-06-16T05:32:12.892Z,99.90
2018-06-16T05:34:41.477Z,99.90
2018-06-16T05:37:10.034Z,99.90
2018-06-16T05:39:38.747Z,99.90
2018-06-16T05:42:07.431Z,99.90
2018-06-16T05:44:36.101Z,99.90
2018-06-16T05:47:04.680Z,99.90
2018-06-16T05:49:33.413Z,99.90
2018-06-16T05:52:02.133Z,99.90
2018-06-16T05:54:30.761Z,99.90
2018-06-16T05:56:59.243Z,99.90
2018-06-16T06:01:56.313Z,99.90
2018-06-16T06:04:25.241Z,99.90
2018-06-16T06:06:53.915Z,99.90
2018-06-16T06:09:22.547Z,99.90
2018-06-16T06:11:51.087Z,99.90
2018-06-16T06:14:19.947Z,99.90
2018-06-16T06:19:16.855Z,99.90
2018-06-16T06:21:45.566Z,99.90
2018-06-16T06:24:14.364Z,99.90
2018-06-16T06:26:42.938Z,99.90
2018-06-16T06:29:11.568Z,99.90
2018-06-16T06:31:40.109Z,99.90
2018-06-16T06:34:08.673Z,99.90
2018-06-16T06:36:37.259Z,99.90
2018-06-16T06:39:07.305Z,99.90
2018-06-16T06:41:35.915Z,99.90
2018-06-16T06:44:04.767Z,99.90
2018-06-16T06:46:33.408Z,99.90
2018-06-16T06:49:02.044Z,99.90
2018-06-16T06:51:30.593Z,99.90
2018-06-16T06:53:59.216Z,99.90
2018-06-16T06:56:27.896Z,99.90
2018-06-16T06:58:56.482Z,99.90
2018-06-16T07:01:24.934Z,99.90
2018-06-16T07:03:53.523Z,99.90
2018-06-16T07:06:22.093Z,99.90
2018-06-16T07:08:50.654Z,99.90
2018-06-16T07:11:19.383Z,99.90
2018-06-16T07:13:48.048Z,99.90
2018-06-16T07:16:16.706Z,99.90
2018-06-16T07:18:46.844Z,99.90
2018-06-16T07:21:15.688Z,99.90
2018-06-16T07:23:44.377Z,99.90
2018-06-16T07:26:13.055Z,99.90
2018-06-16T07:28:42.002Z,99.90
2018-06-16T07:31:10.736Z,99.90
2018-06-16T07:33:39.720Z,99.90
2018-06-16T07:36:08.491Z,99.90
2018-06-16T07:38:37.470Z,99.90
2018-06-16T07:41:06.190Z,99.90
2018-06-16T07:43:34.740Z,99.90
2018-06-16T07:48:31.701Z,99.90
2018-06-16T07:51:00.437Z,99.90
2018-06-16T07:53:29.502Z,99.20
2018-06-16T07:55:58.165Z,97.10
2018-06-16T07:58:26.753Z,94.10
2018-06-16T08:00:55.552Z,92.50
2018-06-16T08:05:52.615Z,87.60
2018-06-16T08:10:49.519Z,83.90
2018-06-16T08:13:18.022Z,80.70
2018-06-16T08:15:46.684Z,78.70
2018-06-16T08:18:15.431Z,76.20
2018-06-16T08:23:12.293Z,75.00
2018-06-16T08:25:40.908Z,74.40
2018-06-16T08:28:09.658Z,73.40
2018-06-16T08:30:38.251Z,72.20
2018-06-16T08:33:06.818Z,72.50
2018-06-16T08:35:35.428Z,70.00
2018-06-16T08:38:04.329Z,70.90
2018-06-16T08:43:01.110Z,71.40
2018-06-16T08:45:29.674Z,72.00
2018-06-16T08:50:26.672Z,70.30
2018-06-16T08:52:55.294Z,66.60
2018-06-16T08:55:23.960Z,66.00
2018-06-16T09:00:20.882Z,60.00
2018-06-16T09:05:17.881Z,61.70
2018-06-16T09:07:46.480Z,61.30
2018-06-16T09:10:15.080Z,61.40
2018-06-16T09:12:43.579Z,61.80
2018-06-16T09:15:12.222Z,61.70
2018-06-16T09:17:40.903Z,61.60
2018-06-16T09:20:09.389Z,60.90
2018-06-16T09:22:37.974Z,61.20
2018-06-16T09:25:06.488Z,60.50
2018-06-16T09:27:35.114Z,60.40
2018-06-16T09:32:32.124Z,59.70
2018-06-16T09:35:02.051Z,58.90
2018-06-16T09:37:30.702Z,59.60
2018-06-16T09:39:59.321Z,59.00
2018-06-16T09:42:27.905Z,59.50
2018-06-16T09:44:56.420Z,59.60
2018-06-16T09:47:25.128Z,60.10
2018-06-16T09:49:53.788Z,59.90
2018-06-16T09:52:22.330Z,60.70
2018-06-16T09:54:51.009Z,61.40
2018-06-16T09:57:19.712Z,62.00
2018-06-16T09:59:48.602Z,62.60
2018-06-16T10:02:17.506Z,63.20
2018-06-16T10:04:46.199Z,64.00
2018-06-16T10:07:14.986Z,64.20
2018-06-16T10:09:43.714Z,63.70
2018-06-16T10:14:40.685Z,63.80
2018-06-16T10:19:38.042Z,62.90
2018-06-16T10:22:06.659Z,63.00
2018-06-16T10:24:35.397Z,63.80
2018-06-16T10:27:04.099Z,63.40
2018-06-16T10:29:32.680Z,64.10
2018-06-16T10:32:01.782Z,64.30
2018-06-16T10:34:30.470Z,64.70
2018-06-16T10:36:59.021Z,64.30
2018-06-16T10:39:27.672Z,64.60
2018-06-16T10:41:56.353Z,64.20
2018-06-16T10:49:21.745Z,64.10
2018-06-16T10:51:50.698Z,63.50
2018-06-16T10:56:47.652Z,63.30
2018-06-16T10:59:16.309Z,62.00
2018-06-16T11:01:44.917Z,61.80
2018-06-16T11:06:41.863Z,60.00
2018-06-16T11:09:11.205Z,59.80
2018-06-16T11:14:08.675Z,58.70
2018-06-16T11:19:06.321Z,58.60
2018-06-16T11:21:34.998Z,58.70
2018-06-16T11:24:03.849Z,59.00
2018-06-16T11:26:32.677Z,59.00
2018-06-16T11:29:01.331Z,58.40
2018-06-16T11:31:29.970Z,57.60
2018-06-16T11:33:59.285Z,57.40
2018-06-16T11:38:56.167Z,57.10
2018-06-16T11:41:24.750Z,56.20
2018-06-16T11:46:22.370Z,54.80
2018-06-16T11:48:51.012Z,54.80
2018-06-16T11:51:19.560Z,56.00
2018-06-16T11:53:48.163Z,56.20
2018-06-16T11:56:16.861Z,55.50
2018-06-16T11:58:45.380Z,56.00
2018-06-16T12:01:14.006Z,55.60
2018-06-16T12:03:42.963Z,55.10
2018-06-16T12:06:11.521Z,56.10
2018-06-16T12:08:40.211Z,56.20
2018-06-16T12:11:08.756Z,55.80
2018-06-16T12:13:37.424Z,55.20
2018-06-16T12:16:06.070Z,55.00
2018-06-16T12:21:03.069Z,54.50
2018-06-16T12:23:31.756Z,54.40
2018-06-16T12:26:00.324Z,54.50
2018-06-16T12:28:29.323Z,54.70
2018-06-16T12:30:58.636Z,55.20
2018-06-16T12:33:27.294Z,55.00
2018-06-16T12:35:55.960Z,55.00
2018-06-16T12:40:52.989Z,55.50
2018-06-16T12:43:21.806Z,55.50
2018-06-16T12:45:50.709Z,55.60
2018-06-16T12:48:20.196Z,56.00
2018-06-16T12:50:48.925Z,55.70
2018-06-16T12:53:17.517Z,55.70
2018-06-16T12:55:46.250Z,55.50
2018-06-16T12:58:14.866Z,56.10
2018-06-16T13:00:43.497Z,55.40
2018-06-16T13:03:12.667Z,55.40
2018-06-16T13:05:41.172Z,55.20
2018-06-16T13:08:09.859Z,55.00
2018-06-16T13:10:38.380Z,55.40
2018-06-16T13:13:07.769Z,55.60
2018-06-16T13:15:36.336Z,55.00
2018-06-16T13:18:05.243Z,54.30
2018-06-16T13:20:33.887Z,54.40
2018-06-16T13:25:31.005Z,55.20
2018-06-16T13:27:59.479Z,55.40
2018-06-16T13:30:27.957Z,54.60
2018-06-16T13:32:56.631Z,53.50
2018-06-16T13:35:25.199Z,53.20
2018-06-16T13:37:53.829Z,53.90
2018-06-16T13:40:22.472Z,54.40
2018-06-16T13:42:51.305Z,54.40
2018-06-16T13:45:19.858Z,54.30
2018-06-16T13:47:48.363Z,53.10
2018-06-16T13:50:16.946Z,54.10
2018-06-16T13:52:45.565Z,55.60
2018-06-16T13:55:14.123Z,55.50
2018-06-16T13:57:42.837Z,54.70
2018-06-16T14:00:11.459Z,52.20
2018-06-16T14:02:40.027Z,52.20
2018-06-16T14:07:36.811Z,51.10
2018-06-16T14:10:05.489Z,51.70
2018-06-16T14:12:34.075Z,51.60
2018-06-16T14:15:02.753Z,51.30
2018-06-16T14:17:31.226Z,50.70
2018-06-16T14:19:59.819Z,50.10
2018-06-16T14:24:56.589Z,49.70
2018-06-16T14:27:25.425Z,49.70
2018-06-16T14:29:54.209Z,49.70
2018-06-16T14:32:22.979Z,49.40
2018-06-16T14:34:51.669Z,48.70
2018-06-16T14:37:20.325Z,48.80
2018-06-16T14:39:48.849Z,49.50
2018-06-16T14:42:17.418Z,50.30
2018-06-16T14:44:46.149Z,50.20
2018-06-16T14:47:14.798Z,49.80
2018-06-16T14:49:43.369Z,50.00
2018-06-16T14:52:12.076Z,51.20
2018-06-16T14:54:41.017Z,51.80
2018-06-16T14:59:38.100Z,53.50
2018-06-16T15:02:06.736Z,53.40
2018-06-16T15:04:35.513Z,53.50
2018-06-16T15:07:04.258Z,53.10
2018-06-16T15:12:01.134Z,53.70
2018-06-16T15:16:58.020Z,53.10
2018-06-16T15:19:26.754Z,53.50
2018-06-16T15:21:55.400Z,53.70
2018-06-16T15:24:24.398Z,53.40
2018-06-16T15:26:53.137Z,53.70
2018-06-16T15:29:21.960Z,54.20
2018-06-16T15:31:50.904Z,56.20
2018-06-16T15:34:19.610Z,56.00
2018-06-16T15:36:48.228Z,56.00
2018-06-16T15:39:16.948Z,56.70
2018-06-16T15:41:45.451Z,56.10
2018-06-16T15:44:14.100Z,55.70
2018-06-16T15:46:42.648Z,55.00
2018-06-16T15:51:39.802Z,52.90
2018-06-16T15:54:08.388Z,52.80
2018-06-16T15:56:37.013Z,53.70
2018-06-16T15:59:05.720Z,54.70
2018-06-16T16:01:34.248Z,55.50
2018-06-16T16:04:03.038Z,56.30
2018-06-16T16:06:31.600Z,56.30
2018-06-16T16:09:00.270Z,57.30
2018-06-16T16:11:28.993Z,58.10
2018-06-16T16:13:57.506Z,58.80
2018-06-16T16:16:26.092Z,58.50
2018-06-16T16:21:23.097Z,58.90
2018-06-16T16:23:51.754Z,58.60
2018-06-16T16:26:20.336Z,60.40
2018-06-16T16:28:48.903Z,60.10
2018-06-16T16:31:17.590Z,60.00
2018-06-16T16:36:14.555Z,62.00
2018-06-16T16:38:43.268Z,62.00
2018-06-16T16:41:11.986Z,61.90
2018-06-16T16:43:40.561Z,62.40
2018-06-16T16:46:09.264Z,62.80
2018-06-16T16:48:39.110Z,63.40
2018-06-16T16:51:07.847Z,63.50
2018-06-16T16:53:36.496Z,63.70
2018-06-16T16:56:05.168Z,63.80
2018-06-16T16:58:33.883Z,63.80
2018-06-16T17:01:02.522Z,64.60
2018-06-16T17:03:31.358Z,64.50
2018-06-16T17:10:56.796Z,64.50
2018-06-16T17:13:25.479Z,65.10
2018-06-16T17:18:22.510Z,66.60
2018-06-16T17:20:51.094Z,66.30
2018-06-16T17:23:19.568Z,66.90
2018-06-16T17:25:48.387Z,66.50
2018-06-16T17:28:17.128Z,66.10
2018-06-16T17:30:45.766Z,66.00
2018-06-16T17:33:14.468Z,66.10
2018-06-16T17:38:11.564Z,66.40
2018-06-16T17:40:46.648Z,66.40
2018-06-16T17:43:15.350Z,66.40
2018-06-16T17:45:44.155Z,66.40
2018-06-16T17:55:38.333Z,66.50
2018-06-16T17:58:06.949Z,66.60
2018-06-16T18:00:35.687Z,66.90
2018-06-16T18:03:04.240Z,67.60
2018-06-16T18:05:32.821Z,67.90
2018-06-16T18:08:01.353Z,67.80
2018-06-16T18:10:30.111Z,67.90
2018-06-16T18:12:58.856Z,67.90
2018-06-16T18:15:27.461Z,68.80
2018-06-16T18:17:56.091Z,69.30
2018-06-16T18:20:24.679Z,70.00
2018-06-16T18:22:53.393Z,70.20
2018-06-16T18:25:22.075Z,70.50
2018-06-16T18:27:50.728Z,70.80
2018-06-16T18:30:19.369Z,70.70
2018-06-16T18:32:47.929Z,72.00
2018-06-16T18:35:16.645Z,70.70
2018-06-16T18:37:45.288Z,70.80
2018-06-16T18:42:42.256Z,72.20
2018-06-16T18:45:10.945Z,72.70
2018-06-16T18:47:39.809Z,73.80
2018-06-16T18:50:08.539Z,75.50
2018-06-16T18:52:37.379Z,76.40
2018-06-16T18:55:06.547Z,76.90
2018-06-16T18:57:35.145Z,78.60
2018-06-16T19:00:03.914Z,78.60
2018-06-16T19:02:32.732Z,79.50
2018-06-16T19:05:01.335Z,80.50
2018-06-16T19:07:30.749Z,82.50
2018-06-16T19:09:59.489Z,83.70
2018-06-16T19:12:28.206Z,85.00
2018-06-16T19:14:56.965Z,86.30
2018-06-16T19:17:25.599Z,86.90
2018-06-16T19:19:54.240Z,87.80
2018-06-16T19:22:23.386Z,89.10
2018-06-16T19:24:52.128Z,89.90
2018-06-16T19:27:20.708Z,90.60
2018-06-16T19:29:49.429Z,91.20
2018-06-16T19:32:18.105Z,92.00
2018-06-16T19:34:47.719Z,92.90
2018-06-16T19:37:16.457Z,93.60
2018-06-16T19:39:45.260Z,94.50
2018-06-16T19:42:13.965Z,95.20
2018-06-16T19:44:42.492Z,95.70
2018-06-16T19:47:11.196Z,96.10
2018-06-16T19:49:39.996Z,96.30
2018-06-16T19:52:08.706Z,96.70
2018-06-16T19:54:37.781Z,96.90
2018-06-16T19:57:06.389Z,97.10
2018-06-16T19:59:35.066Z,97.60
2018-06-16T20:02:04.098Z,97.90
2018-06-16T20:04:33.261Z,98.10
2018-06-16T20:07:01.808Z,98.20
2018-06-16T20:09:31.524Z,98.30
2018-06-16T20:12:00.303Z,98.20
2018-06-16T20:14:29.033Z,98.70
2018-06-16T20:16:57.583Z,99.30
2018-06-16T20:19:26.361Z,99.20
2018-06-16T20:21:55.066Z,99.30
2018-06-16T20:26:52.271Z,99.80
2018-06-16T20:29:20.981Z,99.90
2018-06-16T20:31:49.769Z,99.90
2018-06-16T20:34:18.659Z,99.90
2018-06-16T20:36:47.296Z,99.90
2018-06-16T20:39:16.065Z,99.80
2018-06-16T20:41:44.807Z,99.80
2018-06-16T20:44:13.620Z,99.80
2018-06-16T20:46:42.372Z,99.80
2018-06-16T20:49:11.079Z,99.80
2018-06-16T20:51:39.975Z,99.90
2018-06-16T20:54:08.893Z,99.90
2018-06-16T20:56:37.617Z,99.90
2018-06-16T20:59:06.311Z,99.90
2018-06-16T21:01:35.189Z,99.90
2018-06-16T21:04:03.984Z,99.90
2018-06-16T21:06:32.781Z,99.90
2018-06-16T21:09:01.664Z,99.90
2018-06-16T21:11:30.381Z,99.90
2018-06-16T21:13:59.118Z,99.90
2018-06-16T21:16:27.890Z,99.90
2018-06-16T21:18:56.638Z,99.90
2018-06-16T21:21:25.528Z,99.90
2018-06-16T21:23:54.211Z,99.90
2018-06-16T21:26:23.008Z,99.90
2018-06-16T21:28:51.733Z,99.90
2018-06-16T21:31:20.601Z,99.90
2018-06-16T21:33:49.223Z,99.90
2018-06-16T21:36:17.785Z,99.90
2018-06-16T21:38:46.433Z,99.90
2018-06-16T21:41:15.267Z,99.90
2018-06-16T21:43:43.995Z,99.90
2018-06-16T21:46:12.792Z,99.90
2018-06-16T21:51:10.307Z,99.90
2018-06-16T21:53:39.227Z,99.90
2018-06-16T21:56:08.943Z,99.90
2018-06-16T21:58:37.763Z,99.90
2018-06-16T22:01:06.498Z,99.90
2018-06-16T22:03:35.565Z,99.90
2018-06-16T22:06:04.314Z,99.90
2018-06-16T22:08:34.007Z,99.90
2018-06-16T22:11:03.844Z,99.90
2018-06-16T22:13:32.594Z,99.90
2018-06-16T22:16:01.307Z,99.90
2018-06-16T22:18:30.100Z,99.90
2018-06-16T22:20:58.790Z,99.90
2018-06-16T22:23:27.893Z,99.90
2018-06-16T22:28:25.277Z,99.90
2018-06-16T22:33:22.239Z,99.90
2018-06-16T22:38:19.356Z,99.90
2018-06-16T22:40:48.136Z,99.90
2018-06-16T22:43:16.800Z,99.90
2018-06-16T22:45:45.693Z,99.90
2018-06-16T22:48:14.874Z,99.90
2018-06-16T22:50:43.550Z,99.90
2018-06-16T22:53:12.390Z,99.90
2018-06-16T22:55:41.134Z,99.90
2018-06-16T22:58:09.770Z,99.90
2018-06-16T23:00:38.427Z,99.90
2018-06-16T23:03:07.171Z,99.90
2018-06-16T23:05:35.968Z,99.90
2018-06-16T23:08:04.688Z,99.90
2018-06-16T23:13:01.818Z,99.90
2018-06-16T23:15:30.432Z,99.90
2018-06-16T23:20:27.304Z,99.90
2018-06-16T23:22:55.963Z,99.90
2018-06-16T23:25:24.706Z,99.90
2018-06-16T23:27:53.492Z,99.90
2018-06-16T23:30:22.236Z,99.90
2018-06-16T23:32:50.894Z,99.90
2018-06-16T23:35:19.642Z,99.90
2018-06-16T23:37:48.266Z,99.90
2018-06-16T23:40:17.001Z,99.90
2018-06-16T23:42:45.711Z,99.90
2018-06-16T23:45:14.452Z,99.90
2018-06-16T23:47:43.270Z,99.90
2018-06-16T23:52:40.473Z,99.90
2018-06-16T23:55:09.180Z,99.90
2018-06-16T23:57:37.989Z,99.90
